sensor_id;sensor_type;location;lat;lon;timestamp;P1;durP1;ratioP1;P2;durP2;ratioP2
76380;SDS011;65202;52.520;10.528;2023-07-13T00:02:24;6.97;;;3.85;;
76380;SDS011;65202;52.520;10.528;2023-07-13T00:04:53;9.52;;;3.92;;
76380;SDS011;65202;52.520;10.528;2023-07-13T00:07:20;8.05;;;4.35;;
76380;SDS011;65202;52.520;10.528;2023-07-13T00:09:48;6.50;;;3.65;;
76380;SDS011;65202;52.520;10.528;2023-07-13T00:12:32;5.90;;;3.67;;
76380;SDS011;65202;52.520;10.528;2023-07-13T00:15:04;7.80;;;3.50;;
76380;SDS011;65202;52.520;10.528;2023-07-13T00:17:39;7.65;;;4.25;;
76380;SDS011;65202;52.520;10.528;2023-07-13T00:20:06;7.88;;;3.70;;
76380;SDS011;65202;52.520;10.528;2023-07-13T00:22:34;7.93;;;3.53;;
76380;SDS011;65202;52.520;10.528;2023-07-13T00:25:02;8.27;;;4.10;;
76380;SDS011;65202;52.520;10.528;2023-07-13T00:27:30;7.05;;;3.90;;
76380;SDS011;65202;52.520;10.528;2023-07-13T00:29:58;8.05;;;3.90;;
76380;SDS011;65202;52.520;10.528;2023-07-13T00:32:26;9.23;;;4.13;;
76380;SDS011;65202;52.520;10.528;2023-07-13T00:34:53;11.20;;;4.32;;
76380;SDS011;65202;52.520;10.528;2023-07-13T00:37:20;6.20;;;4.30;;
76380;SDS011;65202;52.520;10.528;2023-07-13T00:39:48;7.45;;;4.00;;
76380;SDS011;65202;52.520;10.528;2023-07-13T00:42:15;8.95;;;4.88;;
76380;SDS011;65202;52.520;10.528;2023-07-13T00:45:00;6.30;;;3.75;;
76380;SDS011;65202;52.520;10.528;2023-07-13T00:47:30;7.65;;;4.30;;
76380;SDS011;65202;52.520;10.528;2023-07-13T00:49:57;8.57;;;4.22;;
76380;SDS011;65202;52.520;10.528;2023-07-13T00:52:25;8.90;;;4.20;;
76380;SDS011;65202;52.520;10.528;2023-07-13T00:54:55;6.80;;;3.80;;
76380;SDS011;65202;52.520;10.528;2023-07-13T00:57:23;7.78;;;3.95;;
76380;SDS011;65202;52.520;10.528;2023-07-13T00:59:52;7.50;;;4.10;;
76380;SDS011;65202;52.520;10.528;2023-07-13T01:02:25;6.70;;;3.78;;
76380;SDS011;65202;52.520;10.528;2023-07-13T01:04:56;7.35;;;3.85;;
76380;SDS011;65202;52.520;10.528;2023-07-13T01:07:23;8.45;;;3.83;;
76380;SDS011;65202;52.520;10.528;2023-07-13T01:09:52;7.43;;;4.05;;
76380;SDS011;65202;52.520;10.528;2023-07-13T01:12:19;7.13;;;3.83;;
76380;SDS011;65202;52.520;10.528;2023-07-13T01:14:46;8.30;;;4.30;;
76380;SDS011;65202;52.520;10.528;2023-07-13T01:17:13;5.65;;;3.70;;
76380;SDS011;65202;52.520;10.528;2023-07-13T01:19:43;9.80;;;3.90;;
76380;SDS011;65202;52.520;10.528;2023-07-13T01:22:13;6.80;;;3.72;;
76380;SDS011;65202;52.520;10.528;2023-07-13T01:24:44;7.97;;;4.22;;
76380;SDS011;65202;52.520;10.528;2023-07-13T01:27:16;7.32;;;3.70;;
76380;SDS011;65202;52.520;10.528;2023-07-13T01:29:52;6.65;;;3.95;;
76380;SDS011;65202;52.520;10.528;2023-07-13T01:32:21;6.20;;;3.95;;
76380;SDS011;65202;52.520;10.528;2023-07-13T01:34:51;8.45;;;4.07;;
76380;SDS011;65202;52.520;10.528;2023-07-13T01:37:24;7.67;;;3.90;;
76380;SDS011;65202;52.520;10.528;2023-07-13T01:39:53;8.40;;;4.00;;
76380;SDS011;65202;52.520;10.528;2023-07-13T01:42:20;7.53;;;3.40;;
76380;SDS011;65202;52.520;10.528;2023-07-13T01:44:47;7.68;;;3.92;;
76380;SDS011;65202;52.520;10.528;2023-07-13T01:47:15;8.73;;;4.25;;
76380;SDS011;65202;52.520;10.528;2023-07-13T01:49:42;12.45;;;4.13;;
76380;SDS011;65202;52.520;10.528;2023-07-13T01:52:09;9.80;;;3.97;;
76380;SDS011;65202;52.520;10.528;2023-07-13T01:54:36;9.52;;;4.07;;
76380;SDS011;65202;52.520;10.528;2023-07-13T01:57:04;6.88;;;4.03;;
76380;SDS011;65202;52.520;10.528;2023-07-13T01:59:31;8.80;;;3.95;;
76380;SDS011;65202;52.520;10.528;2023-07-13T02:02:00;9.20;;;3.72;;
76380;SDS011;65202;52.520;10.528;2023-07-13T02:04:27;7.40;;;4.20;;
76380;SDS011;65202;52.520;10.528;2023-07-13T02:06:55;9.68;;;3.72;;
76380;SDS011;65202;52.520;10.528;2023-07-13T02:09:22;10.32;;;3.95;;
76380;SDS011;65202;52.520;10.528;2023-07-13T02:11:49;8.18;;;3.97;;
76380;SDS011;65202;52.520;10.528;2023-07-13T02:14:16;8.63;;;4.18;;
76380;SDS011;65202;52.520;10.528;2023-07-13T02:16:44;8.02;;;3.70;;
76380;SDS011;65202;52.520;10.528;2023-07-13T02:19:11;7.80;;;3.63;;
76380;SDS011;65202;52.520;10.528;2023-07-13T02:21:38;6.43;;;4.05;;
76380;SDS011;65202;52.520;10.528;2023-07-13T02:24:06;7.43;;;4.05;;
76380;SDS011;65202;52.520;10.528;2023-07-13T02:26:33;7.32;;;3.90;;
76380;SDS011;65202;52.520;10.528;2023-07-13T02:29:01;8.52;;;3.97;;
76380;SDS011;65202;52.520;10.528;2023-07-13T02:31:29;8.88;;;3.67;;
76380;SDS011;65202;52.520;10.528;2023-07-13T02:33:56;8.77;;;3.80;;
76380;SDS011;65202;52.520;10.528;2023-07-13T02:36:23;6.93;;;4.05;;
76380;SDS011;65202;52.520;10.528;2023-07-13T02:38:50;9.07;;;3.80;;
76380;SDS011;65202;52.520;10.528;2023-07-13T02:41:17;7.65;;;3.78;;
76380;SDS011;65202;52.520;10.528;2023-07-13T02:43:45;8.95;;;3.83;;
76380;SDS011;65202;52.520;10.528;2023-07-13T02:46:12;10.90;;;4.20;;
76380;SDS011;65202;52.520;10.528;2023-07-13T02:48:40;7.13;;;4.05;;
76380;SDS011;65202;52.520;10.528;2023-07-13T02:51:07;6.28;;;3.30;;
76380;SDS011;65202;52.520;10.528;2023-07-13T02:53:35;8.32;;;3.80;;
76380;SDS011;65202;52.520;10.528;2023-07-13T02:56:04;6.38;;;3.47;;
76380;SDS011;65202;52.520;10.528;2023-07-13T02:58:32;6.32;;;4.00;;
76380;SDS011;65202;52.520;10.528;2023-07-13T03:00:59;9.07;;;3.97;;
76380;SDS011;65202;52.520;10.528;2023-07-13T03:03:32;6.90;;;3.60;;
76380;SDS011;65202;52.520;10.528;2023-07-13T03:06:00;7.85;;;3.60;;
76380;SDS011;65202;52.520;10.528;2023-07-13T03:08:30;11.00;;;4.10;;
76380;SDS011;65202;52.520;10.528;2023-07-13T03:13:34;5.95;;;3.88;;
76380;SDS011;65202;52.520;10.528;2023-07-13T03:16:01;7.30;;;3.90;;
76380;SDS011;65202;52.520;10.528;2023-07-13T03:18:29;10.05;;;4.30;;
76380;SDS011;65202;52.520;10.528;2023-07-13T03:20:57;5.93;;;3.55;;
76380;SDS011;65202;52.520;10.528;2023-07-13T03:23:25;7.15;;;3.60;;
76380;SDS011;65202;52.520;10.528;2023-07-13T03:26:09;11.38;;;4.28;;
76380;SDS011;65202;52.520;10.528;2023-07-13T03:28:43;6.35;;;3.88;;
76380;SDS011;65202;52.520;10.528;2023-07-13T03:31:14;5.75;;;3.67;;
76380;SDS011;65202;52.520;10.528;2023-07-13T03:33:48;8.07;;;3.63;;
76380;SDS011;65202;52.520;10.528;2023-07-13T03:36:17;8.57;;;4.28;;
76380;SDS011;65202;52.520;10.528;2023-07-13T03:38:50;9.35;;;3.83;;
76380;SDS011;65202;52.520;10.528;2023-07-13T03:41:23;5.90;;;3.70;;
76380;SDS011;65202;52.520;10.528;2023-07-13T03:43:52;10.23;;;4.07;;
76380;SDS011;65202;52.520;10.528;2023-07-13T03:46:20;8.05;;;3.95;;
76380;SDS011;65202;52.520;10.528;2023-07-13T03:48:47;13.88;;;4.10;;
76380;SDS011;65202;52.520;10.528;2023-07-13T03:51:15;8.13;;;4.25;;
76380;SDS011;65202;52.520;10.528;2023-07-13T03:53:44;6.93;;;4.03;;
76380;SDS011;65202;52.520;10.528;2023-07-13T03:56:15;9.18;;;4.05;;
76380;SDS011;65202;52.520;10.528;2023-07-13T03:58:45;10.50;;;4.40;;
76380;SDS011;65202;52.520;10.528;2023-07-13T04:01:15;7.28;;;3.95;;
76380;SDS011;65202;52.520;10.528;2023-07-13T04:03:45;9.73;;;4.45;;
76380;SDS011;65202;52.520;10.528;2023-07-13T04:06:15;10.43;;;4.32;;
76380;SDS011;65202;52.520;10.528;2023-07-13T04:08:49;9.60;;;4.43;;
76380;SDS011;65202;52.520;10.528;2023-07-13T04:11:20;9.63;;;4.28;;
76380;SDS011;65202;52.520;10.528;2023-07-13T04:13:50;10.13;;;4.07;;
76380;SDS011;65202;52.520;10.528;2023-07-13T04:16:18;10.82;;;4.15;;
76380;SDS011;65202;52.520;10.528;2023-07-13T04:18:47;7.35;;;3.72;;
76380;SDS011;65202;52.520;10.528;2023-07-13T04:21:15;10.88;;;4.13;;
76380;SDS011;65202;52.520;10.528;2023-07-13T04:23:43;7.68;;;3.70;;
76380;SDS011;65202;52.520;10.528;2023-07-13T04:26:11;7.60;;;3.60;;
76380;SDS011;65202;52.520;10.528;2023-07-13T04:28:38;9.43;;;3.75;;
76380;SDS011;65202;52.520;10.528;2023-07-13T04:31:06;11.90;;;3.65;;
76380;SDS011;65202;52.520;10.528;2023-07-13T04:33:33;9.63;;;3.70;;
76380;SDS011;65202;52.520;10.528;2023-07-13T04:36:00;8.32;;;3.65;;
76380;SDS011;65202;52.520;10.528;2023-07-13T04:38:29;8.98;;;3.45;;
76380;SDS011;65202;52.520;10.528;2023-07-13T04:40:59;8.00;;;3.53;;
76380;SDS011;65202;52.520;10.528;2023-07-13T04:43:30;8.25;;;3.38;;
76380;SDS011;65202;52.520;10.528;2023-07-13T04:46:03;8.23;;;3.30;;
76380;SDS011;65202;52.520;10.528;2023-07-13T04:48:39;9.57;;;3.30;;
76380;SDS011;65202;52.520;10.528;2023-07-13T04:51:07;6.47;;;3.30;;
76380;SDS011;65202;52.520;10.528;2023-07-13T04:53:34;8.15;;;3.63;;
76380;SDS011;65202;52.520;10.528;2023-07-13T04:56:02;6.00;;;3.10;;
76380;SDS011;65202;52.520;10.528;2023-07-13T04:58:30;10.20;;;3.40;;
76380;SDS011;65202;52.520;10.528;2023-07-13T05:01:02;7.93;;;3.90;;
76380;SDS011;65202;52.520;10.528;2023-07-13T05:03:32;15.38;;;3.97;;
76380;SDS011;65202;52.520;10.528;2023-07-13T05:06:01;6.47;;;3.33;;
76380;SDS011;65202;52.520;10.528;2023-07-13T05:08:31;10.48;;;3.53;;
76380;SDS011;65202;52.520;10.528;2023-07-13T05:11:00;7.70;;;3.05;;
76380;SDS011;65202;52.520;10.528;2023-07-13T05:13:28;8.48;;;3.10;;
76380;SDS011;65202;52.520;10.528;2023-07-13T05:15:57;8.55;;;3.00;;
76380;SDS011;65202;52.520;10.528;2023-07-13T05:18:27;5.72;;;2.58;;
76380;SDS011;65202;52.520;10.528;2023-07-13T05:21:01;11.02;;;3.40;;
76380;SDS011;65202;52.520;10.528;2023-07-13T05:23:35;7.32;;;2.80;;
76380;SDS011;65202;52.520;10.528;2023-07-13T05:26:03;6.00;;;2.60;;
76380;SDS011;65202;52.520;10.528;2023-07-13T05:28:35;6.57;;;2.50;;
76380;SDS011;65202;52.520;10.528;2023-07-13T05:31:03;11.90;;;3.05;;
76380;SDS011;65202;52.520;10.528;2023-07-13T05:33:33;8.13;;;2.97;;
76380;SDS011;65202;52.520;10.528;2023-07-13T05:36:00;9.90;;;2.58;;
76380;SDS011;65202;52.520;10.528;2023-07-13T05:38:28;9.38;;;2.63;;
76380;SDS011;65202;52.520;10.528;2023-07-13T05:40:56;8.00;;;2.50;;
76380;SDS011;65202;52.520;10.528;2023-07-13T05:43:24;11.73;;;2.40;;
76380;SDS011;65202;52.520;10.528;2023-07-13T05:45:53;6.68;;;2.25;;
76380;SDS011;65202;52.520;10.528;2023-07-13T05:48:23;10.45;;;2.65;;
76380;SDS011;65202;52.520;10.528;2023-07-13T05:50:51;7.60;;;3.00;;
76380;SDS011;65202;52.520;10.528;2023-07-13T05:53:18;12.48;;;3.35;;
76380;SDS011;65202;52.520;10.528;2023-07-13T05:55:47;11.55;;;3.33;;
76380;SDS011;65202;52.520;10.528;2023-07-13T05:58:17;10.52;;;2.90;;
76380;SDS011;65202;52.520;10.528;2023-07-13T06:00:45;10.55;;;3.05;;
76380;SDS011;65202;52.520;10.528;2023-07-13T06:03:14;10.05;;;2.72;;
76380;SDS011;65202;52.520;10.528;2023-07-13T06:05:41;10.10;;;2.70;;
76380;SDS011;65202;52.520;10.528;2023-07-13T06:08:09;10.50;;;3.15;;
76380;SDS011;65202;52.520;10.528;2023-07-13T06:10:36;9.68;;;2.50;;
76380;SDS011;65202;52.520;10.528;2023-07-13T06:13:04;18.85;;;3.65;;
76380;SDS011;65202;52.520;10.528;2023-07-13T06:15:32;10.02;;;3.17;;
76380;SDS011;65202;52.520;10.528;2023-07-13T06:18:00;10.73;;;3.40;;
76380;SDS011;65202;52.520;10.528;2023-07-13T06:20:28;9.05;;;2.90;;
76380;SDS011;65202;52.520;10.528;2023-07-13T06:22:55;8.43;;;2.63;;
76380;SDS011;65202;52.520;10.528;2023-07-13T06:25:23;10.50;;;3.33;;
76380;SDS011;65202;52.520;10.528;2023-07-13T06:27:50;12.55;;;3.58;;
76380;SDS011;65202;52.520;10.528;2023-07-13T06:30:18;12.90;;;2.90;;
76380;SDS011;65202;52.520;10.528;2023-07-13T06:32:45;10.32;;;2.88;;
76380;SDS011;65202;52.520;10.528;2023-07-13T06:35:12;14.80;;;4.53;;
76380;SDS011;65202;52.520;10.528;2023-07-13T06:37:40;8.93;;;3.22;;
76380;SDS011;65202;52.520;10.528;2023-07-13T06:40:08;11.07;;;2.80;;
76380;SDS011;65202;52.520;10.528;2023-07-13T06:42:35;10.55;;;2.67;;
76380;SDS011;65202;52.520;10.528;2023-07-13T06:45:03;8.45;;;2.47;;
76380;SDS011;65202;52.520;10.528;2023-07-13T06:47:31;11.10;;;2.97;;
76380;SDS011;65202;52.520;10.528;2023-07-13T06:50:00;9.25;;;2.60;;
76380;SDS011;65202;52.520;10.528;2023-07-13T06:52:28;13.30;;;2.80;;
76380;SDS011;65202;52.520;10.528;2023-07-13T06:54:55;13.30;;;2.55;;
76380;SDS011;65202;52.520;10.528;2023-07-13T06:57:22;14.57;;;2.78;;
76380;SDS011;65202;52.520;10.528;2023-07-13T06:59:50;17.30;;;2.42;;
76380;SDS011;65202;52.520;10.528;2023-07-13T07:02:17;8.70;;;2.47;;
76380;SDS011;65202;52.520;10.528;2023-07-13T07:04:44;11.60;;;2.50;;
76380;SDS011;65202;52.520;10.528;2023-07-13T07:07:11;26.67;;;3.47;;
76380;SDS011;65202;52.520;10.528;2023-07-13T07:09:39;19.42;;;3.22;;
76380;SDS011;65202;52.520;10.528;2023-07-13T07:12:06;12.55;;;2.72;;
76380;SDS011;65202;52.520;10.528;2023-07-13T07:14:34;10.98;;;2.75;;
76380;SDS011;65202;52.520;10.528;2023-07-13T07:17:01;9.88;;;2.78;;
76380;SDS011;65202;52.520;10.528;2023-07-13T07:19:29;15.27;;;3.33;;
76380;SDS011;65202;52.520;10.528;2023-07-13T07:21:57;12.10;;;2.78;;
76380;SDS011;65202;52.520;10.528;2023-07-13T07:24:24;12.38;;;3.70;;
76380;SDS011;65202;52.520;10.528;2023-07-13T07:26:52;8.35;;;2.63;;
76380;SDS011;65202;52.520;10.528;2023-07-13T07:29:22;12.00;;;2.50;;
76380;SDS011;65202;52.520;10.528;2023-07-13T07:31:54;6.88;;;2.10;;
76380;SDS011;65202;52.520;10.528;2023-07-13T07:34:25;10.38;;;2.70;;
76380;SDS011;65202;52.520;10.528;2023-07-13T07:36:53;22.92;;;8.82;;
76380;SDS011;65202;52.520;10.528;2023-07-13T07:39:23;17.67;;;4.90;;
76380;SDS011;65202;52.520;10.528;2023-07-13T07:41:51;14.50;;;4.15;;
76380;SDS011;65202;52.520;10.528;2023-07-13T07:44:21;17.73;;;5.40;;
76380;SDS011;65202;52.520;10.528;2023-07-13T07:46:49;14.57;;;3.78;;
76380;SDS011;65202;52.520;10.528;2023-07-13T07:49:16;22.88;;;4.60;;
76380;SDS011;65202;52.520;10.528;2023-07-13T07:51:43;38.42;;;5.25;;
76380;SDS011;65202;52.520;10.528;2023-07-13T07:54:10;12.82;;;2.92;;
76380;SDS011;65202;52.520;10.528;2023-07-13T07:56:49;11.30;;;2.50;;
76380;SDS011;65202;52.520;10.528;2023-07-13T07:59:19;10.02;;;2.40;;
76380;SDS011;65202;52.520;10.528;2023-07-13T08:01:49;15.63;;;5.10;;
76380;SDS011;65202;52.520;10.528;2023-07-13T08:04:20;13.63;;;2.75;;
76380;SDS011;65202;52.520;10.528;2023-07-13T08:06:50;10.23;;;2.67;;
76380;SDS011;65202;52.520;10.528;2023-07-13T08:09:17;11.07;;;2.90;;
76380;SDS011;65202;52.520;10.528;2023-07-13T08:11:44;8.40;;;2.90;;
76380;SDS011;65202;52.520;10.528;2023-07-13T08:14:14;9.30;;;2.97;;
76380;SDS011;65202;52.520;10.528;2023-07-13T08:16:42;11.75;;;2.85;;
76380;SDS011;65202;52.520;10.528;2023-07-13T08:19:10;25.80;;;4.43;;
76380;SDS011;65202;52.520;10.528;2023-07-13T08:21:38;9.20;;;3.10;;
76380;SDS011;65202;52.520;10.528;2023-07-13T08:24:05;10.45;;;3.50;;
76380;SDS011;65202;52.520;10.528;2023-07-13T08:26:33;10.15;;;3.50;;
76380;SDS011;65202;52.520;10.528;2023-07-13T08:29:00;14.20;;;4.03;;
76380;SDS011;65202;52.520;10.528;2023-07-13T08:31:27;20.17;;;4.88;;
76380;SDS011;65202;52.520;10.528;2023-07-13T08:33:54;11.10;;;3.65;;
76380;SDS011;65202;52.520;10.528;2023-07-13T08:36:22;13.98;;;3.58;;
76380;SDS011;65202;52.520;10.528;2023-07-13T08:38:49;14.45;;;3.88;;
76380;SDS011;65202;52.520;10.528;2023-07-13T08:41:17;10.82;;;4.63;;
76380;SDS011;65202;52.520;10.528;2023-07-13T08:43:45;9.00;;;3.45;;
76380;SDS011;65202;52.520;10.528;2023-07-13T08:46:19;12.93;;;3.30;;
76380;SDS011;65202;52.520;10.528;2023-07-13T08:48:56;10.18;;;3.20;;
76380;SDS011;65202;52.520;10.528;2023-07-13T08:51:39;25.73;;;4.43;;
76380;SDS011;65202;52.520;10.528;2023-07-13T08:54:18;8.73;;;3.42;;
76380;SDS011;65202;52.520;10.528;2023-07-13T08:56:50;11.73;;;3.25;;
76380;SDS011;65202;52.520;10.528;2023-07-13T08:59:21;7.53;;;3.08;;
76380;SDS011;65202;52.520;10.528;2023-07-13T09:04:59;24.33;;;3.70;;
76380;SDS011;65202;52.520;10.528;2023-07-13T09:10:57;10.80;;;5.53;;
76380;SDS011;65202;52.520;10.528;2023-07-13T09:16:07;22.08;;;3.35;;
76380;SDS011;65202;52.520;10.528;2023-07-13T09:18:39;10.20;;;2.20;;
76380;SDS011;65202;52.520;10.528;2023-07-13T09:21:23;7.53;;;2.40;;
76380;SDS011;65202;52.520;10.528;2023-07-13T09:24:01;7.28;;;2.25;;
76380;SDS011;65202;52.520;10.528;2023-07-13T09:27:14;7.82;;;2.17;;
76380;SDS011;65202;52.520;10.528;2023-07-13T09:29:55;9.88;;;2.20;;
76380;SDS011;65202;52.520;10.528;2023-07-13T09:32:31;6.68;;;1.85;;
76380;SDS011;65202;52.520;10.528;2023-07-13T09:35:00;6.97;;;2.03;;
76380;SDS011;65202;52.520;10.528;2023-07-13T09:37:31;4.45;;;1.92;;
76380;SDS011;65202;52.520;10.528;2023-07-13T09:39:59;6.78;;;1.95;;
76380;SDS011;65202;52.520;10.528;2023-07-13T09:42:31;10.88;;;1.90;;
76380;SDS011;65202;52.520;10.528;2023-07-13T09:45:00;7.45;;;1.90;;
76380;SDS011;65202;52.520;10.528;2023-07-13T09:47:30;5.78;;;1.77;;
76380;SDS011;65202;52.520;10.528;2023-07-13T09:50:10;7.55;;;1.83;;
76380;SDS011;65202;52.520;10.528;2023-07-13T09:52:48;5.95;;;1.55;;
76380;SDS011;65202;52.520;10.528;2023-07-13T09:55:23;7.18;;;1.77;;
76380;SDS011;65202;52.520;10.528;2023-07-13T09:57:57;9.27;;;2.00;;
76380;SDS011;65202;52.520;10.528;2023-07-13T10:00:26;9.95;;;2.50;;
76380;SDS011;65202;52.520;10.528;2023-07-13T10:05:50;7.32;;;2.00;;
76380;SDS011;65202;52.520;10.528;2023-07-13T10:08:27;8.48;;;2.05;;
76380;SDS011;65202;52.520;10.528;2023-07-13T10:11:00;5.72;;;2.08;;
76380;SDS011;65202;52.520;10.528;2023-07-13T10:13:36;12.90;;;2.42;;
76380;SDS011;65202;52.520;10.528;2023-07-13T10:16:09;7.93;;;2.10;;
76380;SDS011;65202;52.520;10.528;2023-07-13T10:18:43;6.60;;;2.10;;
76380;SDS011;65202;52.520;10.528;2023-07-13T10:21:17;9.68;;;3.10;;
76380;SDS011;65202;52.520;10.528;2023-07-13T10:24:24;13.95;;;3.35;;
76380;SDS011;65202;52.520;10.528;2023-07-13T10:26:54;9.23;;;3.42;;
76380;SDS011;65202;52.520;10.528;2023-07-13T10:29:34;11.48;;;4.05;;
76380;SDS011;65202;52.520;10.528;2023-07-13T10:32:09;7.82;;;2.30;;
76380;SDS011;65202;52.520;10.528;2023-07-13T10:34:40;5.95;;;2.20;;
76380;SDS011;65202;52.520;10.528;2023-07-13T10:37:16;5.85;;;1.73;;
76380;SDS011;65202;52.520;10.528;2023-07-13T10:39:51;5.15;;;1.75;;
76380;SDS011;65202;52.520;10.528;2023-07-13T10:42:29;4.63;;;1.75;;
76380;SDS011;65202;52.520;10.528;2023-07-13T10:45:14;9.70;;;2.10;;
76380;SDS011;65202;52.520;10.528;2023-07-13T10:47:45;5.07;;;1.60;;
76380;SDS011;65202;52.520;10.528;2023-07-13T10:50:15;7.45;;;2.00;;
76380;SDS011;65202;52.520;10.528;2023-07-13T10:52:53;4.75;;;1.88;;
76380;SDS011;65202;52.520;10.528;2023-07-13T11:01:22;3.55;;;1.80;;
76380;SDS011;65202;52.520;10.528;2023-07-13T11:03:53;9.02;;;1.90;;
76380;SDS011;65202;52.520;10.528;2023-07-13T11:06:33;6.80;;;1.92;;
76380;SDS011;65202;52.520;10.528;2023-07-13T11:09:19;5.68;;;1.92;;
76380;SDS011;65202;52.520;10.528;2023-07-13T11:12:29;9.32;;;2.38;;
76380;SDS011;65202;52.520;10.528;2023-07-13T11:15:26;5.40;;;2.03;;
76380;SDS011;65202;52.520;10.528;2023-07-13T11:18:02;7.50;;;1.90;;
76380;SDS011;65202;52.520;10.528;2023-07-13T11:20:35;6.15;;;2.13;;
76380;SDS011;65202;52.520;10.528;2023-07-13T11:23:08;6.05;;;1.90;;
76380;SDS011;65202;52.520;10.528;2023-07-13T11:25:38;5.20;;;1.83;;
76380;SDS011;65202;52.520;10.528;2023-07-13T11:30:44;4.85;;;1.63;;
76380;SDS011;65202;52.520;10.528;2023-07-13T11:33:31;4.45;;;1.80;;
76380;SDS011;65202;52.520;10.528;2023-07-13T11:36:19;6.25;;;2.20;;
76380;SDS011;65202;52.520;10.528;2023-07-13T11:41:54;6.25;;;2.13;;
76380;SDS011;65202;52.520;10.528;2023-07-13T11:46:57;7.47;;;1.80;;
76380;SDS011;65202;52.520;10.528;2023-07-13T11:49:44;3.85;;;1.80;;
76380;SDS011;65202;52.520;10.528;2023-07-13T11:52:17;5.82;;;2.20;;
76380;SDS011;65202;52.520;10.528;2023-07-13T11:54:49;6.20;;;2.25;;
76380;SDS011;65202;52.520;10.528;2023-07-13T12:00:12;8.38;;;2.22;;
76380;SDS011;65202;52.520;10.528;2023-07-13T12:02:48;8.23;;;2.35;;
76380;SDS011;65202;52.520;10.528;2023-07-13T12:05:20;7.30;;;1.95;;
76380;SDS011;65202;52.520;10.528;2023-07-13T12:07:48;6.57;;;2.20;;
76380;SDS011;65202;52.520;10.528;2023-07-13T12:10:21;8.25;;;2.53;;
76380;SDS011;65202;52.520;10.528;2023-07-13T12:12:53;5.85;;;1.80;;
76380;SDS011;65202;52.520;10.528;2023-07-13T12:15:28;7.35;;;2.20;;
76380;SDS011;65202;52.520;10.528;2023-07-13T12:18:13;5.65;;;2.00;;
76380;SDS011;65202;52.520;10.528;2023-07-13T12:20:45;6.18;;;1.90;;
76380;SDS011;65202;52.520;10.528;2023-07-13T12:23:25;7.45;;;2.45;;
76380;SDS011;65202;52.520;10.528;2023-07-13T12:25:58;6.55;;;1.92;;
76380;SDS011;65202;52.520;10.528;2023-07-13T12:28:36;4.53;;;1.67;;
76380;SDS011;65202;52.520;10.528;2023-07-13T12:31:29;4.18;;;1.50;;
76380;SDS011;65202;52.520;10.528;2023-07-13T12:34:10;6.78;;;2.70;;
76380;SDS011;65202;52.520;10.528;2023-07-13T12:36:49;6.82;;;2.38;;
76380;SDS011;65202;52.520;10.528;2023-07-13T12:39:37;4.47;;;2.05;;
76380;SDS011;65202;52.520;10.528;2023-07-13T12:45:20;6.72;;;2.30;;
76380;SDS011;65202;52.520;10.528;2023-07-13T12:47:58;5.97;;;2.10;;
76380;SDS011;65202;52.520;10.528;2023-07-13T12:50:37;6.35;;;2.22;;
76380;SDS011;65202;52.520;10.528;2023-07-13T12:53:15;4.83;;;2.20;;
76380;SDS011;65202;52.520;10.528;2023-07-13T12:55:50;5.35;;;2.13;;
76380;SDS011;65202;52.520;10.528;2023-07-13T12:58:27;4.93;;;1.98;;
76380;SDS011;65202;52.520;10.528;2023-07-13T13:01:12;7.57;;;2.17;;
76380;SDS011;65202;52.520;10.528;2023-07-13T13:03:45;7.50;;;2.83;;
76380;SDS011;65202;52.520;10.528;2023-07-13T13:08:46;5.25;;;1.98;;
76380;SDS011;65202;52.520;10.528;2023-07-13T13:11:20;9.63;;;2.40;;
76380;SDS011;65202;52.520;10.528;2023-07-13T13:13:50;6.10;;;2.50;;
76380;SDS011;65202;52.520;10.528;2023-07-13T13:16:21;6.90;;;2.10;;
76380;SDS011;65202;52.520;10.528;2023-07-13T13:18:52;4.93;;;2.25;;
76380;SDS011;65202;52.520;10.528;2023-07-13T13:21:24;7.00;;;2.13;;
76380;SDS011;65202;52.520;10.528;2023-07-13T13:23:53;5.82;;;2.10;;
76380;SDS011;65202;52.520;10.528;2023-07-13T13:26:21;5.82;;;2.17;;
76380;SDS011;65202;52.520;10.528;2023-07-13T13:28:49;6.25;;;2.05;;
76380;SDS011;65202;52.520;10.528;2023-07-13T13:31:17;7.88;;;2.25;;
76380;SDS011;65202;52.520;10.528;2023-07-13T13:33:45;8.23;;;2.10;;
76380;SDS011;65202;52.520;10.528;2023-07-13T13:36:15;7.70;;;2.13;;
76380;SDS011;65202;52.520;10.528;2023-07-13T13:38:49;7.85;;;2.00;;
76380;SDS011;65202;52.520;10.528;2023-07-13T13:41:17;10.23;;;2.20;;
76380;SDS011;65202;52.520;10.528;2023-07-13T13:43:45;7.38;;;2.10;;
76380;SDS011;65202;52.520;10.528;2023-07-13T13:46:19;8.50;;;2.00;;
76380;SDS011;65202;52.520;10.528;2023-07-13T13:48:52;3.78;;;1.90;;
76380;SDS011;65202;52.520;10.528;2023-07-13T13:51:20;6.13;;;2.38;;
76380;SDS011;65202;52.520;10.528;2023-07-13T13:53:50;5.45;;;2.08;;
76380;SDS011;65202;52.520;10.528;2023-07-13T13:56:18;5.45;;;2.05;;
76380;SDS011;65202;52.520;10.528;2023-07-13T13:58:46;5.43;;;2.10;;
76380;SDS011;65202;52.520;10.528;2023-07-13T14:01:18;7.80;;;3.65;;
76380;SDS011;65202;52.520;10.528;2023-07-13T14:03:49;6.30;;;2.80;;
76380;SDS011;65202;52.520;10.528;2023-07-13T14:06:18;13.18;;;2.20;;
76380;SDS011;65202;52.520;10.528;2023-07-13T14:08:45;11.40;;;1.80;;
76380;SDS011;65202;52.520;10.528;2023-07-13T14:11:16;13.93;;;2.13;;
76380;SDS011;65202;52.520;10.528;2023-07-13T14:13:49;8.68;;;2.40;;
76380;SDS011;65202;52.520;10.528;2023-07-13T14:16:22;11.70;;;2.63;;
76380;SDS011;65202;52.520;10.528;2023-07-13T14:18:56;10.13;;;2.40;;
76380;SDS011;65202;52.520;10.528;2023-07-13T14:21:27;12.45;;;2.40;;
76380;SDS011;65202;52.520;10.528;2023-07-13T14:23:56;4.97;;;2.13;;
76380;SDS011;65202;52.520;10.528;2023-07-13T14:26:24;8.18;;;2.53;;
76380;SDS011;65202;52.520;10.528;2023-07-13T14:28:55;5.47;;;2.78;;
76380;SDS011;65202;52.520;10.528;2023-07-13T14:31:25;7.93;;;2.42;;
76380;SDS011;65202;52.520;10.528;2023-07-13T14:33:57;4.88;;;2.80;;
76380;SDS011;65202;52.520;10.528;2023-07-13T14:39:11;9.10;;;2.30;;
76380;SDS011;65202;52.520;10.528;2023-07-13T14:41:42;6.03;;;2.67;;
76380;SDS011;65202;52.520;10.528;2023-07-13T14:44:11;4.90;;;2.38;;
76380;SDS011;65202;52.520;10.528;2023-07-13T14:46:44;6.18;;;2.65;;
76380;SDS011;65202;52.520;10.528;2023-07-13T14:49:21;6.53;;;2.47;;
76380;SDS011;65202;52.520;10.528;2023-07-13T14:52:17;4.35;;;2.47;;
76380;SDS011;65202;52.520;10.528;2023-07-13T14:54:49;8.48;;;2.50;;
76380;SDS011;65202;52.520;10.528;2023-07-13T14:57:17;9.32;;;2.90;;
76380;SDS011;65202;52.520;10.528;2023-07-13T14:59:47;4.78;;;2.33;;
76380;SDS011;65202;52.520;10.528;2023-07-13T15:04:59;8.80;;;2.80;;
76380;SDS011;65202;52.520;10.528;2023-07-13T15:07:28;4.38;;;2.50;;
76380;SDS011;65202;52.520;10.528;2023-07-13T15:09:55;5.65;;;2.65;;
76380;SDS011;65202;52.520;10.528;2023-07-13T15:12:23;3.38;;;2.60;;
76380;SDS011;65202;52.520;10.528;2023-07-13T15:14:55;5.88;;;2.67;;
76380;SDS011;65202;52.520;10.528;2023-07-13T15:20:06;4.97;;;2.50;;
76380;SDS011;65202;52.520;10.528;2023-07-13T15:22:48;8.60;;;2.53;;
76380;SDS011;65202;52.520;10.528;2023-07-13T15:25:18;5.72;;;3.17;;
76380;SDS011;65202;52.520;10.528;2023-07-13T15:27:50;6.30;;;2.50;;
76380;SDS011;65202;52.520;10.528;2023-07-13T15:30:20;4.63;;;2.25;;
76380;SDS011;65202;52.520;10.528;2023-07-13T15:32:49;5.97;;;2.65;;
76380;SDS011;65202;52.520;10.528;2023-07-13T15:35:19;5.13;;;2.80;;
76380;SDS011;65202;52.520;10.528;2023-07-13T15:37:49;7.00;;;2.77;;
76380;SDS011;65202;52.520;10.528;2023-07-13T15:40:17;4.20;;;2.10;;